Airfield :
LOGIN :

Register | Disclaimer

   EN    FR    IT 

 










Legend :    VFR   Marginal VFR   IFR   Intensive IFR   Very Intensive IFR
Visi :
Ceiling :
>= 8 km
>= 3000ft
5 to 8 km
1000 to 3000 ft
1500m to 5 km
500 to 1000 ft
800 to 1500m
200 to 500 ft
< 800m
< 200 ft
Symbols :   Thunderstorms  Fog  Heavy snow  Heavy precipitations  Wind > 20 kt
SIGMETs :     Misc.  Thunderstorms  Icing  Turbulence  Mountain Waves  Volcanic Ashes







- Airport Elevation : 160 ft
- IATA code : LRT
- Download approach charts


LFRH - Lorient Lann Bihoue

CURRENT METAR :
  • 262330Z AUTO 36005KT CAVOK 16/15 Q1010 TEMPO SHRA SCT030TCU BKN040

EXPIRED METARs :
  • 262300Z AUTO 36003KT CAVOK 17/15 Q1010 NOSIG
  • 262230Z AUTO 01005KT CAVOK 17/15 Q1010 NOSIG
  • 262200Z AUTO 35005KT CAVOK 18/15 Q1010 NOSIG
  • 262130Z AUTO 36004KT CAVOK 18/16 Q1010 NOSIG
  • 262100Z AUTO 30004KT CAVOK 18/16 Q1010 BECMG 02010KT

TAF TAF LFRH
Valid from the 27 at 00:00 until the 28 at 00:00 UTC


262300Z 2700/2724 01005KT CAVOK
PROB30 2700/2706 SHRA SCT030TCU BKN040
BECMG 2704/2706 SHRA SCT030TCU BKN040
BECMG 2710/2712 26010G20KT
TEMPO 2712/2718 26015G30KT
TEMPO 2712/2724 5000 SHRA SCT010CB BKN030
PROB30
TEMPO 2712/2720 3000 TSRA
BECMG 2720/2722 26010KT
No reported NOTAMs for that airfield.



MET'MAP, your aeronautical weather chart ! - Copyright ORBIFLY December 2007 - Disclaimer

ORBIFLY MET'MAP TEAM :

Programming & Development : Alexandra Zaïnal
Concept & Development : Baudouin d'Aumeries
Co-Development & Prog : Marc-Olivier Méhu
Technical & hardware support : Manuel Goepfert

Contact : metmap@orbifly.com




SOURCES & CREDITS :

   NOAA